Time;durP1;ratioP1;P1;durP2;ratioP2;P2;SDS_P1;SDS_P2;PMS_P1;PMS_P2;Temp;Humidity;BMP_temperature;BMP_pressure;BME280_temperature;BME280_humidity;BME280_pressure;Samples;Min_cycle;Max_cycle;Signal;HPM_P1;HPM_P2
2023/05/02 02:00:47;;;;;;;8.00;4.03;;;;;;;;;;4862990;27;20114;-71
2023/05/02 02:03:14;;;;;;;6.28;3.05;;;;;;;;;;4262593;33;20066;-71
2023/05/02 02:05:41;;;;;;;17.73;4.30;;;;;;;;;;4265835;33;20042;-71
2023/05/02 02:08:07;;;;;;;9.23;3.78;;;;;;;;;;4265836;33;20097;-71
2023/05/02 02:10:39;;;;;;;10.18;3.83;;;;;;;;;;4265635;33;20034;-70
2023/05/02 02:13:25;;;;;;;5.85;3.85;;;;;;;;;;4264629;33;20064;-71
2023/05/02 02:15:56;;;;;;;11.20;4.03;;;;;;;;;;4265177;33;20042;-71
2023/05/02 02:18:25;;;;;;;10.93;3.58;;;;;;;;;;4265701;33;20151;-71
2023/05/02 02:20:52;;;;;;;7.55;3.58;;;;;;;;;;4265114;33;20067;-71
2023/05/02 02:23:22;;;;;;;18.00;4.80;;;;;;;;;;4265192;33;20053;-71
2023/05/02 02:25:49;;;;;;;7.95;3.72;;;;;;;;;;4265676;33;20079;-71
2023/05/02 02:28:16;;;;;;;8.82;3.90;;;;;;;;;;4264225;33;20059;-71
2023/05/02 02:30:42;;;;;;;9.02;3.58;;;;;;;;;;4264903;33;20425;-71
2023/05/02 02:33:08;;;;;;;9.30;4.20;;;;;;;;;;4264057;33;20854;-71
2023/05/02 02:35:39;;;;;;;10.57;3.58;;;;;;;;;;4299992;33;20071;-71
2023/05/02 02:38:11;;;;;;;9.32;4.45;;;;;;;;;;4308622;33;20062;-71
2023/05/02 02:40:43;;;;;;;14.10;4.53;;;;;;;;;;4308663;33;20147;-71
2023/05/02 02:43:19;;;;;;;7.90;4.03;;;;;;;;;;4305172;33;20057;-71
2023/05/02 02:45:50;;;;;;;11.45;5.95;;;;;;;;;;4293242;33;20094;-72
2023/05/02 02:48:36;;;;;;;9.40;3.63;;;;;;;;;;4293390;33;20440;-71
2023/05/02 02:51:08;;;;;;;6.95;3.90;;;;;;;;;;4293751;33;20151;-71
2023/05/02 02:53:53;;;;;;;10.27;3.87;;;;;;;;;;4293871;33;20048;-71
2023/05/02 02:56:22;;;;;;;8.13;3.62;;;;;;;;;;4291878;33;20135;-73
2023/05/02 02:58:56;;;;;;;6.60;4.10;;;;;;;;;;4296504;33;20052;-71
2023/05/02 03:01:24;;;;;;;6.05;4.37;;;;;;;;;;4307441;33;20435;-71
2023/05/02 03:03:50;;;;;;;12.73;3.85;;;;;;;;;;4292228;33;20056;-71
2023/05/02 03:06:23;;;;;;;4.53;3.72;;;;;;;;;;4292381;33;20051;-72
2023/05/02 03:08:50;;;;;;;8.23;3.65;;;;;;;;;;4292450;33;20061;-71
2023/05/02 03:11:17;;;;;;;10.95;4.30;;;;;;;;;;4293764;33;20033;-71
2023/05/02 03:13:43;;;;;;;9.98;4.05;;;;;;;;;;4293288;33;20637;-71
2023/05/02 03:16:28;;;;;;;4.80;3.35;;;;;;;;;;4291224;33;20067;-71
2023/05/02 03:18:54;;;;;;;10.70;3.97;;;;;;;;;;4285617;33;20063;-71
2023/05/02 03:21:21;;;;;;;10.50;4.05;;;;;;;;;;4307933;33;20395;-71
2023/05/02 03:23:48;;;;;;;8.07;4.25;;;;;;;;;;4307945;33;20380;-71
2023/05/02 03:26:15;;;;;;;6.62;4.05;;;;;;;;;;4306056;33;20041;-72
2023/05/02 03:28:45;;;;;;;6.55;3.65;;;;;;;;;;4306964;33;20074;-71
2023/05/02 03:31:15;;;;;;;8.23;4.43;;;;;;;;;;4307510;33;20036;-71
2023/05/02 03:33:42;;;;;;;15.65;4.53;;;;;;;;;;4307788;33;20897;-71
2023/05/02 03:36:08;;;;;;;8.77;3.42;;;;;;;;;;4291677;33;20084;-71
2023/05/02 03:38:34;;;;;;;10.85;4.10;;;;;;;;;;4289804;33;20119;-71
2023/05/02 03:41:02;;;;;;;11.73;4.00;;;;;;;;;;4309444;33;20234;-71
2023/05/02 03:43:29;;;;;;;14.93;4.55;;;;;;;;;;4309952;33;20048;-71
2023/05/02 03:45:56;;;;;;;9.98;4.18;;;;;;;;;;4309904;33;20102;-71
2023/05/02 03:48:22;;;;;;;12.75;4.20;;;;;;;;;;4309491;33;20440;-73
2023/05/02 03:50:49;;;;;;;9.65;4.07;;;;;;;;;;4309009;33;20096;-71
2023/05/02 03:53:15;;;;;;;9.88;4.12;;;;;;;;;;4310237;33;20090;-71
2023/05/02 03:55:42;;;;;;;10.50;3.70;;;;;;;;;;4310134;33;20070;-72
2023/05/02 03:58:09;;;;;;;10.80;4.30;;;;;;;;;;4296862;33;20516;-71
2023/05/02 04:00:37;;;;;;;10.10;4.25;;;;;;;;;;4309533;33;20350;-72
2023/05/02 04:03:03;;;;;;;7.47;4.15;;;;;;;;;;4308545;33;20049;-71
2023/05/02 04:05:30;;;;;;;11.95;4.28;;;;;;;;;;4309916;33;20087;-71
2023/05/02 04:07:57;;;;;;;9.18;4.30;;;;;;;;;;4309936;33;20070;-71
2023/05/02 04:10:24;;;;;;;12.57;4.93;;;;;;;;;;4309684;33;20041;-71
2023/05/02 04:12:50;;;;;;;11.43;4.30;;;;;;;;;;4306668;33;20057;-72
2023/05/02 04:15:17;;;;;;;11.35;4.65;;;;;;;;;;4309712;33;20071;-71
2023/05/02 04:17:43;;;;;;;11.52;4.45;;;;;;;;;;4309428;33;20141;-70
2023/05/02 04:20:11;;;;;;;14.35;4.30;;;;;;;;;;4309570;33;20041;-71
2023/05/02 04:22:38;;;;;;;15.63;4.90;;;;;;;;;;4310036;33;20459;-72
2023/05/02 04:25:06;;;;;;;9.80;3.80;;;;;;;;;;4307115;33;20074;-71
2023/05/02 04:27:33;;;;;;;9.88;5.55;;;;;;;;;;4291176;33;20136;-72
2023/05/02 04:29:59;;;;;;;8.30;4.00;;;;;;;;;;4295397;33;20412;-73
2023/05/02 04:32:25;;;;;;;11.20;4.28;;;;;;;;;;4292561;33;20463;-72
2023/05/02 04:34:52;;;;;;;10.85;4.32;;;;;;;;;;4290899;33;20070;-73
2023/05/02 04:37:19;;;;;;;9.55;3.70;;;;;;;;;;4291103;33;20993;-72
2023/05/02 04:39:45;;;;;;;21.35;4.62;;;;;;;;;;4291870;33;20515;-71
2023/05/02 04:42:12;;;;;;;5.65;4.40;;;;;;;;;;4292795;33;20057;-72
2023/05/02 04:44:39;;;;;;;9.77;5.10;;;;;;;;;;4291841;33;20432;-72
2023/05/02 04:47:06;;;;;;;6.15;4.07;;;;;;;;;;4290334;33;20053;-72
2023/05/02 04:49:32;;;;;;;10.88;4.85;;;;;;;;;;4292858;33;20102;-71
2023/05/02 04:51:58;;;;;;;9.70;3.60;;;;;;;;;;4291470;33;20089;-72
2023/05/02 04:54:24;;;;;;;10.05;4.40;;;;;;;;;;4289031;33;20067;-71
2023/05/02 04:56:51;;;;;;;9.93;4.37;;;;;;;;;;4285663;33;20049;-72
2023/05/02 04:59:17;;;;;;;10.60;3.83;;;;;;;;;;4288088;33;20444;-71
2023/05/02 05:01:44;;;;;;;14.90;4.30;;;;;;;;;;4288577;33;20057;-72
2023/05/02 05:04:11;;;;;;;15.85;6.10;;;;;;;;;;4291255;33;20124;-71
2023/05/02 05:06:37;;;;;;;7.32;4.60;;;;;;;;;;4307994;33;20049;-72
2023/05/02 05:09:04;;;;;;;9.13;4.32;;;;;;;;;;4308417;33;20037;-72
2023/05/02 05:11:30;;;;;;;7.45;4.25;;;;;;;;;;4285008;33;20046;-71
2023/05/02 05:13:57;;;;;;;7.55;3.50;;;;;;;;;;4288203;33;20029;-71
2023/05/02 05:16:24;;;;;;;7.65;3.97;;;;;;;;;;4286208;33;20045;-71
2023/05/02 05:18:52;;;;;;;14.25;4.65;;;;;;;;;;4286255;33;20054;-71
2023/05/02 05:21:19;;;;;;;11.68;3.78;;;;;;;;;;4285838;33;20501;-72
2023/05/02 05:23:46;;;;;;;17.70;4.10;;;;;;;;;;4284033;33;20078;-70
2023/05/02 05:26:15;;;;;;;8.75;3.65;;;;;;;;;;4280543;33;20436;-70
2023/05/02 05:28:42;;;;;;;11.73;4.55;;;;;;;;;;4280754;33;20033;-71
2023/05/02 05:31:16;;;;;;;12.23;3.60;;;;;;;;;;4278278;33;20042;-71
2023/05/02 05:33:43;;;;;;;5.28;3.10;;;;;;;;;;4276331;33;20061;-71
2023/05/02 05:36:11;;;;;;;10.73;4.00;;;;;;;;;;4266239;33;20058;-71
2023/05/02 05:38:37;;;;;;;8.40;3.45;;;;;;;;;;4266189;33;20076;-71
2023/05/02 05:41:04;;;;;;;7.35;3.40;;;;;;;;;;4267839;33;20453;-72
2023/05/02 05:43:31;;;;;;;8.13;3.47;;;;;;;;;;4280218;33;20058;-72
2023/05/02 05:45:58;;;;;;;6.18;3.95;;;;;;;;;;4281801;33;20124;-71
2023/05/02 05:48:25;;;;;;;6.43;3.12;;;;;;;;;;4288971;33;20029;-71
2023/05/02 05:50:51;;;;;;;7.78;3.58;;;;;;;;;;4309295;33;20541;-71
2023/05/02 05:53:18;;;;;;;14.73;3.85;;;;;;;;;;4311679;33;20107;-72
2023/05/02 05:55:45;;;;;;;6.15;3.37;;;;;;;;;;4311082;33;20476;-71
2023/05/02 05:58:12;;;;;;;7.53;3.25;;;;;;;;;;4311639;33;20428;-71
2023/05/02 06:00:39;;;;;;;16.02;3.80;;;;;;;;;;4310453;33;20143;-69
2023/05/02 06:03:08;;;;;;;7.85;3.35;;;;;;;;;;4306664;33;20096;-71
2023/05/02 06:05:34;;;;;;;5.10;2.95;;;;;;;;;;4309659;33;20083;-69
2023/05/02 06:08:00;;;;;;;7.80;3.08;;;;;;;;;;4310441;33;20049;-70
2023/05/02 06:10:27;;;;;;;13.90;4.03;;;;;;;;;;4310384;33;20078;-70
2023/05/02 06:12:53;;;;;;;7.47;3.33;;;;;;;;;;4306244;33;20081;-71
2023/05/02 06:15:20;;;;;;;5.00;3.55;;;;;;;;;;4308729;33;20048;-70
2023/05/02 06:17:46;;;;;;;11.27;3.78;;;;;;;;;;4309636;33;20082;-70
2023/05/02 06:20:14;;;;;;;6.47;3.45;;;;;;;;;;4310717;33;20049;-70
2023/05/02 06:22:41;;;;;;;5.32;3.05;;;;;;;;;;4310248;33;20348;-69
2023/05/02 06:25:08;;;;;;;10.93;3.78;;;;;;;;;;4306878;33;20037;-70
2023/05/02 06:27:40;;;;;;;6.30;4.10;;;;;;;;;;4305737;33;20390;-70
2023/05/02 06:30:06;;;;;;;4.55;2.92;;;;;;;;;;4307131;33;20440;-70
2023/05/02 06:32:32;;;;;;;6.18;3.62;;;;;;;;;;4302576;33;20062;-70
2023/05/02 06:34:59;;;;;;;11.07;4.18;;;;;;;;;;4310267;33;20057;-69
2023/05/02 06:37:24;;;;;;;13.50;4.20;;;;;;;;;;4308167;33;20509;-71
2023/05/02 06:39:51;;;;;;;4.78;3.30;;;;;;;;;;4305280;33;20424;-70
2023/05/02 06:42:17;;;;;;;10.57;3.60;;;;;;;;;;4308538;33;20078;-70
2023/05/02 06:44:43;;;;;;;6.15;3.10;;;;;;;;;;4310459;33;20100;-70
2023/05/02 06:47:09;;;;;;;4.87;3.70;;;;;;;;;;4310250;33;20040;-71
2023/05/02 06:49:35;;;;;;;5.10;3.60;;;;;;;;;;4306003;33;20049;-72
2023/05/02 06:52:02;;;;;;;10.80;3.80;;;;;;;;;;4307009;33;20070;-70
2023/05/02 06:54:28;;;;;;;4.15;2.97;;;;;;;;;;4316185;33;20439;-70
2023/05/02 06:56:54;;;;;;;12.35;3.70;;;;;;;;;;4312301;33;20107;-69
2023/05/02 06:59:20;;;;;;;7.55;4.20;;;;;;;;;;4310440;33;20084;-70
2023/05/02 07:01:46;;;;;;;11.55;4.75;;;;;;;;;;4306099;33;20085;-73
2023/05/02 07:04:13;;;;;;;14.32;4.18;;;;;;;;;;4309763;33;20907;-71
2023/05/02 07:06:39;;;;;;;19.48;5.25;;;;;;;;;;4313243;33;20044;-70
2023/05/02 07:09:05;;;;;;;8.93;3.97;;;;;;;;;;4299520;33;20063;-73
2023/05/02 07:11:31;;;;;;;9.38;4.68;;;;;;;;;;4296570;33;20503;-73
2023/05/02 07:13:57;;;;;;;6.05;3.80;;;;;;;;;;4300938;33;20471;-74
2023/05/02 07:16:23;;;;;;;7.47;4.15;;;;;;;;;;4305029;33;20040;-73
2023/05/02 07:18:50;;;;;;;16.25;3.72;;;;;;;;;;4313918;33;20492;-73
2023/05/02 07:21:17;;;;;;;9.60;4.12;;;;;;;;;;4319689;33;20073;-73
2023/05/02 07:23:44;;;;;;;6.00;3.72;;;;;;;;;;4314905;33;20041;-73
2023/05/02 07:26:10;;;;;;;8.63;3.55;;;;;;;;;;4279414;33;20077;-74
2023/05/02 07:28:36;;;;;;;6.62;4.32;;;;;;;;;;4280459;33;20074;-72
2023/05/02 07:31:03;;;;;;;6.50;4.00;;;;;;;;;;4258587;33;20067;-73
2023/05/02 07:33:29;;;;;;;9.23;4.20;;;;;;;;;;4252461;33;20077;-74
2023/05/02 07:35:55;;;;;;;7.25;4.25;;;;;;;;;;4254940;33;20072;-73
2023/05/02 07:38:22;;;;;;;4.32;3.12;;;;;;;;;;4255764;33;20054;-73
2023/05/02 07:40:48;;;;;;;5.12;3.80;;;;;;;;;;4233739;33;20244;-73
2023/05/02 07:43:15;;;;;;;7.18;3.25;;;;;;;;;;4235780;33;20461;-73
2023/05/02 07:45:41;;;;;;;6.20;3.55;;;;;;;;;;4233403;33;20605;-73
2023/05/02 07:48:07;;;;;;;10.93;4.05;;;;;;;;;;4237264;33;20063;-71
2023/05/02 07:50:33;;;;;;;8.35;4.45;;;;;;;;;;4234279;33;20385;-73
2023/05/02 07:52:59;;;;;;;7.32;4.22;;;;;;;;;;4232619;33;20085;-71
2023/05/02 07:55:26;;;;;;;8.07;4.57;;;;;;;;;;4241761;33;20043;-73
2023/05/02 07:57:52;;;;;;;8.88;4.60;;;;;;;;;;4256815;33;20108;-72
2023/05/02 08:00:18;;;;;;;7.55;4.40;;;;;;;;;;4268591;33;20216;-72
2023/05/02 08:02:45;;;;;;;7.32;3.95;;;;;;;;;;4294100;33;20134;-74
2023/05/02 08:05:11;;;;;;;7.30;4.35;;;;;;;;;;4305127;33;20917;-73
2023/05/02 08:07:37;;;;;;;5.03;3.58;;;;;;;;;;4304301;33;20066;-72
2023/05/02 08:10:04;;;;;;;5.40;4.10;;;;;;;;;;4306552;33;20051;-73
2023/05/02 08:12:30;;;;;;;3.90;3.45;;;;;;;;;;4305715;33;20100;-72
2023/05/02 08:14:56;;;;;;;6.78;4.25;;;;;;;;;;4306107;33;20418;-74
2023/05/02 08:17:23;;;;;;;7.62;4.05;;;;;;;;;;4307240;33;20157;-72
2023/05/02 08:19:49;;;;;;;5.87;3.83;;;;;;;;;;4307874;33;20706;-71
2023/05/02 08:22:15;;;;;;;7.65;3.90;;;;;;;;;;4304355;33;20124;-72
2023/05/02 08:24:48;;;;;;;6.87;4.15;;;;;;;;;;4262163;33;20115;-71
2023/05/02 08:27:14;;;;;;;11.77;5.25;;;;;;;;;;4258435;33;20038;-73
2023/05/02 08:29:40;;;;;;;10.00;4.07;;;;;;;;;;4264034;33;20233;-72
2023/05/02 08:32:06;;;;;;;8.27;3.90;;;;;;;;;;4271966;33;20083;-72
2023/05/02 08:34:32;;;;;;;10.02;4.05;;;;;;;;;;4267955;33;20031;-73
2023/05/02 08:36:59;;;;;;;11.85;4.12;;;;;;;;;;4264995;33;20058;-72
2023/05/02 08:39:25;;;;;;;7.55;4.68;;;;;;;;;;4267500;33;20342;-74
2023/05/02 08:41:51;;;;;;;14.30;4.72;;;;;;;;;;4270704;33;20966;-73
2023/05/02 08:44:17;;;;;;;17.92;5.68;;;;;;;;;;4266080;33;20056;-72
2023/05/02 08:46:44;;;;;;;8.88;4.30;;;;;;;;;;4251582;33;20788;-72
2023/05/02 08:49:10;;;;;;;9.27;4.70;;;;;;;;;;4252147;33;20048;-72
2023/05/02 08:51:37;;;;;;;5.65;3.78;;;;;;;;;;4249960;33;20076;-73
2023/05/02 08:54:06;;;;;;;8.68;4.40;;;;;;;;;;4251357;33;20344;-71
2023/05/02 08:56:32;;;;;;;9.77;4.65;;;;;;;;;;4269796;33;20053;-72
2023/05/02 08:58:58;;;;;;;13.77;3.78;;;;;;;;;;4287476;33;20453;-71
2023/05/02 09:01:30;;;;;;;9.35;4.93;;;;;;;;;;4285537;33;20063;-72
2023/05/02 09:03:58;;;;;;;13.00;5.85;;;;;;;;;;4268202;33;20109;-71
2023/05/02 09:06:31;;;;;;;8.43;5.10;;;;;;;;;;4263524;33;20103;-72
2023/05/02 09:08:58;;;;;;;8.98;4.72;;;;;;;;;;4265733;33;20054;-73
2023/05/02 09:11:25;;;;;;;12.23;4.90;;;;;;;;;;4264617;33;20038;-74
2023/05/02 09:13:51;;;;;;;9.43;4.65;;;;;;;;;;4265085;33;20068;-73
2023/05/02 09:16:22;;;;;;;7.22;5.30;;;;;;;;;;4270663;33;20049;-72
2023/05/02 09:18:49;;;;;;;5.87;4.57;;;;;;;;;;4307849;33;20197;-72
2023/05/02 09:21:16;;;;;;;9.40;5.82;;;;;;;;;;4310832;33;20078;-72
2023/05/02 09:23:44;;;;;;;10.18;5.05;;;;;;;;;;4308209;33;20358;-72
2023/05/02 09:26:15;;;;;;;14.20;4.70;;;;;;;;;;4308619;33;20068;-73
2023/05/02 09:28:42;;;;;;;8.13;5.30;;;;;;;;;;4310320;33;20056;-72
2023/05/02 09:31:09;;;;;;;7.68;5.30;;;;;;;;;;4314708;33;20117;-72
2023/05/02 09:33:36;;;;;;;8.43;5.50;;;;;;;;;;4305507;33;20122;-72
2023/05/02 09:36:03;;;;;;;7.62;4.85;;;;;;;;;;4293027;33;20108;-72
2023/05/02 09:38:29;;;;;;;9.23;5.47;;;;;;;;;;4292790;33;20037;-71
2023/05/02 09:40:55;;;;;;;6.45;4.18;;;;;;;;;;4264926;33;20421;-72
2023/05/02 09:43:21;;;;;;;6.65;5.10;;;;;;;;;;4263101;33;20050;-73
2023/05/02 09:46:00;;;;;;;8.10;4.97;;;;;;;;;;4260363;33;20054;-72
2023/05/02 09:48:27;;;;;;;10.77;5.28;;;;;;;;;;4256074;33;20034;-72
2023/05/02 09:50:54;;;;;;;9.18;4.82;;;;;;;;;;4264464;33;20064;-71
2023/05/02 09:53:20;;;;;;;11.70;5.10;;;;;;;;;;4264595;33;20210;-73
2023/05/02 09:55:47;;;;;;;10.07;5.70;;;;;;;;;;4263827;33;20050;-71
2023/05/02 09:58:21;;;;;;;9.85;4.82;;;;;;;;;;4264168;33;20054;-70
2023/05/02 10:00:48;;;;;;;6.05;4.60;;;;;;;;;;4262966;33;20055;-71
2023/05/02 10:03:16;;;;;;;9.02;5.55;;;;;;;;;;4259307;33;20076;-71
2023/05/02 10:05:43;;;;;;;6.53;4.80;;;;;;;;;;4263030;33;20072;-72
2023/05/02 10:08:13;;;;;;;9.48;4.80;;;;;;;;;;4276081;33;20067;-71
2023/05/02 10:10:43;;;;;;;12.90;5.40;;;;;;;;;;4270552;33;20091;-72
2023/05/02 10:13:11;;;;;;;8.05;4.65;;;;;;;;;;4298692;33;20041;-71
2023/05/02 10:15:44;;;;;;;7.45;5.40;;;;;;;;;;4304794;33;20045;-71
2023/05/02 10:18:26;;;;;;;8.88;4.72;;;;;;;;;;4308775;33;20064;-70
2023/05/02 10:20:57;;;;;;;9.07;4.53;;;;;;;;;;4313055;33;20066;-71
2023/05/02 10:23:26;;;;;;;7.07;4.57;;;;;;;;;;4321301;33;20070;-72
2023/05/02 10:25:53;;;;;;;6.47;4.70;;;;;;;;;;4321525;33;20431;-70
2023/05/02 10:28:19;;;;;;;9.13;6.05;;;;;;;;;;4321511;33;20097;-71
2023/05/02 10:30:46;;;;;;;8.93;4.60;;;;;;;;;;4322365;33;20062;-72
2023/05/02 10:33:13;;;;;;;5.80;4.47;;;;;;;;;;4321002;33;20748;-70
2023/05/02 10:35:42;;;;;;;9.48;5.12;;;;;;;;;;4321487;33;20099;-72
2023/05/02 10:38:08;;;;;;;9.35;4.47;;;;;;;;;;4321264;33;20041;-70
2023/05/02 10:40:35;;;;;;;13.38;5.22;;;;;;;;;;4322934;33;20062;-70
2023/05/02 10:43:07;;;;;;;11.50;4.35;;;;;;;;;;4323001;33;20044;-70
2023/05/02 10:45:34;;;;;;;8.35;5.07;;;;;;;;;;4320141;33;20078;-71
2023/05/02 10:48:16;;;;;;;11.80;5.85;;;;;;;;;;4306243;33;20058;-70
2023/05/02 10:50:46;;;;;;;13.62;4.18;;;;;;;;;;4319539;33;20040;-72
2023/05/02 10:53:28;;;;;;;11.88;5.70;;;;;;;;;;4321655;33;20052;-69
2023/05/02 10:56:06;;;;;;;6.72;4.28;;;;;;;;;;4298525;33;20393;-72
2023/05/02 10:58:33;;;;;;;7.30;5.00;;;;;;;;;;4285561;33;20875;-71
2023/05/02 11:01:17;;;;;;;9.07;4.57;;;;;;;;;;4411177;28;20085;-73
2023/05/02 11:04:03;;;;;;;7.05;4.65;;;;;;;;;;4261083;33;20061;-71
2023/05/02 11:06:33;;;;;;;6.43;4.82;;;;;;;;;;4261290;33;20084;-71
2023/05/02 11:09:13;;;;;;;12.27;4.85;;;;;;;;;;4251718;33;20096;-73
2023/05/02 11:11:40;;;;;;;8.38;4.72;;;;;;;;;;4262724;33;20135;-71
2023/05/02 11:14:08;;;;;;;17.35;4.90;;;;;;;;;;4260451;33;20075;-71
2023/05/02 11:16:53;;;;;;;5.05;4.50;;;;;;;;;;4260180;33;20064;-71
2023/05/02 11:19:19;;;;;;;9.07;4.55;;;;;;;;;;4256654;33;20058;-70
2023/05/02 11:21:52;;;;;;;9.05;4.85;;;;;;;;;;4260744;33;20149;-71
2023/05/02 11:24:36;;;;;;;19.00;5.40;;;;;;;;;;4260572;33;20108;-71
2023/05/02 11:27:21;;;;;;;10.93;5.22;;;;;;;;;;4264713;33;20071;-71
2023/05/02 11:29:51;;;;;;;10.63;5.15;;;;;;;;;;4273388;33;20123;-71
2023/05/02 11:32:17;;;;;;;7.35;5.18;;;;;;;;;;4272991;33;20115;-72
2023/05/02 11:34:43;;;;;;;15.52;4.75;;;;;;;;;;4279651;33;20041;-71
2023/05/02 11:37:11;;;;;;;8.98;5.00;;;;;;;;;;4279895;33;20061;-71
2023/05/02 11:39:37;;;;;;;7.55;4.35;;;;;;;;;;4289054;33;20084;-71
2023/05/02 11:42:03;;;;;;;10.48;4.68;;;;;;;;;;4287851;33;20044;-71
2023/05/02 11:44:30;;;;;;;6.03;4.75;;;;;;;;;;4288314;33;20037;-72
2023/05/02 11:47:03;;;;;;;12.23;4.90;;;;;;;;;;4289905;33;20086;-72
2023/05/02 11:49:30;;;;;;;9.73;5.50;;;;;;;;;;4291728;33;20073;-71
2023/05/02 11:51:57;;;;;;;9.45;5.20;;;;;;;;;;4284902;33;20224;-71
2023/05/02 11:54:23;;;;;;;10.20;5.07;;;;;;;;;;4284928;33;20049;-70
2023/05/02 11:56:49;;;;;;;9.80;5.57;;;;;;;;;;4284370;33;20876;-70
2023/05/02 11:59:16;;;;;;;14.38;5.68;;;;;;;;;;4281549;33;20412;-70
2023/05/02 12:01:49;;;;;;;12.63;5.75;;;;;;;;;;4286936;33;20394;-71
2023/05/02 12:04:20;;;;;;;13.85;7.60;;;;;;;;;;4263861;33;20064;-72
2023/05/02 12:06:53;;;;;;;9.77;6.45;;;;;;;;;;4266504;33;20074;-71
2023/05/02 12:09:20;;;;;;;10.95;5.72;;;;;;;;;;4267879;33;20038;-72
2023/05/02 12:11:51;;;;;;;9.02;5.45;;;;;;;;;;4267119;33;20103;-71
2023/05/02 12:14:25;;;;;;;9.10;5.22;;;;;;;;;;4266520;33;20077;-71
2023/05/02 12:16:51;;;;;;;9.10;5.25;;;;;;;;;;4267761;33;20057;-71
2023/05/02 12:19:17;;;;;;;7.25;5.43;;;;;;;;;;4271366;33;20148;-71
2023/05/02 12:21:43;;;;;;;12.73;6.43;;;;;;;;;;4266063;33;20146;-73
2023/05/02 12:24:09;;;;;;;6.65;5.20;;;;;;;;;;4251392;33;20058;-72
2023/05/02 12:26:36;;;;;;;12.50;6.05;;;;;;;;;;4265592;33;20895;-72
2023/05/02 12:29:05;;;;;;;6.82;5.18;;;;;;;;;;4265652;33;20038;-71
2023/05/02 12:31:31;;;;;;;8.90;5.60;;;;;;;;;;4265403;33;20066;-71
2023/05/02 12:33:59;;;;;;;8.80;5.47;;;;;;;;;;4263831;33;20089;-72
2023/05/02 12:36:27;;;;;;;13.38;5.10;;;;;;;;;;4281181;33;20053;-71
2023/05/02 12:38:56;;;;;;;8.77;5.03;;;;;;;;;;4279853;33;20046;-71
2023/05/02 12:41:32;;;;;;;8.60;5.07;;;;;;;;;;4271483;33;20064;-70
2023/05/02 12:43:59;;;;;;;7.15;4.60;;;;;;;;;;4275904;33;20075;-73
2023/05/02 12:46:27;;;;;;;11.10;5.57;;;;;;;;;;4279381;33;20078;-70
2023/05/02 12:49:10;;;;;;;7.90;4.85;;;;;;;;;;4279862;33;20049;-71
2023/05/02 12:51:38;;;;;;;7.78;4.70;;;;;;;;;;4261052;33;20142;-74
2023/05/02 12:54:05;;;;;;;7.70;4.03;;;;;;;;;;4279330;33;20042;-72
2023/05/02 12:56:38;;;;;;;6.68;4.28;;;;;;;;;;4279205;33;20060;-73
2023/05/02 12:59:04;;;;;;;7.10;4.95;;;;;;;;;;4278921;33;20071;-72
2023/05/02 13:01:34;;;;;;;7.37;4.37;;;;;;;;;;4280294;33;20050;-73
2023/05/02 13:04:00;;;;;;;10.55;4.70;;;;;;;;;;4292642;33;20458;-72
2023/05/02 13:06:26;;;;;;;7.28;3.90;;;;;;;;;;4294758;33;20517;-71
2023/05/02 13:08:52;;;;;;;9.35;5.07;;;;;;;;;;4293941;33;20110;-73
2023/05/02 13:11:19;;;;;;;7.28;4.47;;;;;;;;;;4294644;33;20045;-70
2023/05/02 13:13:45;;;;;;;4.93;3.90;;;;;;;;;;4309364;33;20444;-71
2023/05/02 13:16:11;;;;;;;5.47;4.97;;;;;;;;;;4307041;33;20048;-74
2023/05/02 13:18:37;;;;;;;5.20;4.37;;;;;;;;;;4302664;33;20475;-70
2023/05/02 13:21:04;;;;;;;9.70;4.18;;;;;;;;;;4316431;33;20075;-71
2023/05/02 13:23:30;;;;;;;9.00;4.43;;;;;;;;;;4318698;33;20036;-72
2023/05/02 13:25:56;;;;;;;7.25;4.45;;;;;;;;;;4321234;33;20558;-72
2023/05/02 13:28:22;;;;;;;11.50;4.37;;;;;;;;;;4315883;33;20087;-73
2023/05/02 13:30:49;;;;;;;6.35;4.45;;;;;;;;;;4321713;33;20118;-73
2023/05/02 13:33:15;;;;;;;5.90;4.30;;;;;;;;;;4318508;33;20048;-72
2023/05/02 13:35:42;;;;;;;8.27;5.10;;;;;;;;;;4298103;33;20168;-72
2023/05/02 13:38:08;;;;;;;9.60;4.55;;;;;;;;;;4292231;33;20712;-72
2023/05/02 13:40:34;;;;;;;12.50;4.72;;;;;;;;;;4299876;33;20052;-72
2023/05/02 13:43:01;;;;;;;11.38;5.47;;;;;;;;;;4292600;33;21191;-72
2023/05/02 13:45:27;;;;;;;7.68;4.70;;;;;;;;;;4295610;33;20478;-72
2023/05/02 13:47:53;;;;;;;9.35;5.12;;;;;;;;;;4300070;33;20048;-72
2023/05/02 13:50:19;;;;;;;10.85;4.57;;;;;;;;;;4304234;33;20078;-72
2023/05/02 13:52:45;;;;;;;20.05;6.10;;;;;;;;;;4292329;33;20038;-71
2023/05/02 13:55:12;;;;;;;15.40;6.28;;;;;;;;;;4289412;33;20394;-72
2023/05/02 13:57:38;;;;;;;7.47;5.28;;;;;;;;;;4292557;33;20049;-72
2023/05/02 14:00:07;;;;;;;9.60;5.00;;;;;;;;;;4283443;33;20056;-72
2023/05/02 14:02:32;;;;;;;9.95;5.37;;;;;;;;;;4287777;33;20127;-72
2023/05/02 14:04:59;;;;;;;9.80;4.72;;;;;;;;;;4286562;33;20065;-73
2023/05/02 14:07:25;;;;;;;11.90;6.62;;;;;;;;;;4279958;33;20071;-72
2023/05/02 14:09:51;;;;;;;5.57;4.50;;;;;;;;;;4277891;33;20075;-73
2023/05/02 14:12:17;;;;;;;12.18;5.00;;;;;;;;;;4278220;33;20115;-72
2023/05/02 14:14:44;;;;;;;6.10;4.50;;;;;;;;;;4276650;33;20105;-73
2023/05/02 14:17:10;;;;;;;17.92;5.93;;;;;;;;;;4271008;33;21022;-72
2023/05/02 14:19:36;;;;;;;8.27;5.30;;;;;;;;;;4264282;33;20054;-73
2023/05/02 14:22:02;;;;;;;8.95;5.53;;;;;;;;;;4275661;33;20069;-73
2023/05/02 14:24:28;;;;;;;7.70;5.45;;;;;;;;;;4276916;33;20057;-72
2023/05/02 14:26:54;;;;;;;10.90;6.22;;;;;;;;;;4264513;33;20135;-74
2023/05/02 14:29:21;;;;;;;11.85;6.15;;;;;;;;;;4261759;33;20054;-72
2023/05/02 14:31:47;;;;;;;9.90;5.35;;;;;;;;;;4263479;33;20038;-73
2023/05/02 14:34:13;;;;;;;12.05;5.60;;;;;;;;;;4263303;33;20052;-72
2023/05/02 14:36:39;;;;;;;7.60;4.53;;;;;;;;;;4263041;33;20448;-74
2023/05/02 14:39:05;;;;;;;8.20;5.35;;;;;;;;;;4263958;33;20079;-74
2023/05/02 14:41:32;;;;;;;8.43;5.12;;;;;;;;;;4249761;33;20391;-71
2023/05/02 14:43:58;;;;;;;11.35;5.50;;;;;;;;;;4250750;33;20369;-72
2023/05/02 14:46:24;;;;;;;9.25;5.93;;;;;;;;;;4251437;33;20093;-73
2023/05/02 14:48:50;;;;;;;9.90;5.40;;;;;;;;;;4264530;33;20054;-74
2023/05/02 14:51:16;;;;;;;7.35;5.35;;;;;;;;;;4263058;33;20075;-73
2023/05/02 14:53:42;;;;;;;6.03;4.80;;;;;;;;;;4262448;33;20067;-73
2023/05/02 14:56:12;;;;;;;8.15;5.10;;;;;;;;;;4264564;33;20196;-72
2023/05/02 14:58:38;;;;;;;6.50;4.65;;;;;;;;;;4220967;34;20064;-72
2023/05/02 15:01:04;;;;;;;7.12;4.57;;;;;;;;;;4233023;33;20465;-72
2023/05/02 15:03:31;;;;;;;17.02;7.60;;;;;;;;;;4235405;33;20888;-76
2023/05/02 15:05:57;;;;;;;10.15;6.20;;;;;;;;;;4236224;33;20128;-74
2023/05/02 15:08:24;;;;;;;14.90;5.32;;;;;;;;;;4236677;33;20046;-73
2023/05/02 15:10:50;;;;;;;11.02;6.22;;;;;;;;;;4250679;33;20195;-72
2023/05/02 15:13:16;;;;;;;8.40;4.55;;;;;;;;;;4238684;33;20152;-73
2023/05/02 15:15:45;;;;;;;7.80;4.72;;;;;;;;;;4235290;33;20046;-72
2023/05/02 15:18:11;;;;;;;9.75;4.57;;;;;;;;;;4236766;33;20453;-73
2023/05/02 15:20:37;;;;;;;10.32;4.43;;;;;;;;;;4241682;33;20145;-74
2023/05/02 15:23:03;;;;;;;7.10;3.95;;;;;;;;;;4250904;33;20045;-73
2023/05/02 15:25:30;;;;;;;4.78;3.83;;;;;;;;;;4250902;33;20042;-73
2023/05/02 15:27:56;;;;;;;7.80;5.00;;;;;;;;;;4261760;33;20533;-74
2023/05/02 15:30:29;;;;;;;10.73;4.43;;;;;;;;;;4276535;33;20517;-73
2023/05/02 15:33:02;;;;;;;6.12;4.07;;;;;;;;;;4278629;33;20112;-73
2023/05/02 15:35:28;;;;;;;8.40;4.03;;;;;;;;;;4279006;33;20101;-73
2023/05/02 15:37:54;;;;;;;9.18;4.57;;;;;;;;;;4277875;33;20057;-73
2023/05/02 15:40:20;;;;;;;6.25;4.07;;;;;;;;;;4278838;33;20069;-72
2023/05/02 15:42:47;;;;;;;6.22;3.80;;;;;;;;;;4278931;33;20037;-72
2023/05/02 15:45:13;;;;;;;6.03;4.25;;;;;;;;;;4278996;33;20486;-73
2023/05/02 15:47:40;;;;;;;8.70;4.03;;;;;;;;;;4248293;33;20057;-73
2023/05/02 15:50:06;;;;;;;4.10;3.62;;;;;;;;;;4246800;33;20073;-75
2023/05/02 15:52:32;;;;;;;9.10;3.92;;;;;;;;;;4248816;33;20627;-72
2023/05/02 15:55:00;;;;;;;8.75;3.50;;;;;;;;;;4249960;33;20101;-73
2023/05/02 15:57:26;;;;;;;5.05;3.40;;;;;;;;;;4247999;33;20052;-73
2023/05/02 15:59:52;;;;;;;6.47;3.03;;;;;;;;;;4249048;33;20031;-73
2023/05/02 16:02:18;;;;;;;6.05;3.90;;;;;;;;;;4245382;33;20065;-73
2023/05/02 16:04:45;;;;;;;7.82;3.45;;;;;;;;;;4249902;33;20493;-71
2023/05/02 16:07:11;;;;;;;8.68;3.67;;;;;;;;;;4247832;33;20072;-73
2023/05/02 16:09:38;;;;;;;6.65;3.80;;;;;;;;;;4250270;33;20081;-72
2023/05/02 16:12:05;;;;;;;6.60;4.07;;;;;;;;;;4247279;33;20061;-75
2023/05/02 16:14:31;;;;;;;6.65;3.60;;;;;;;;;;4248021;33;20067;-74
2023/05/02 16:16:58;;;;;;;11.45;3.50;;;;;;;;;;4246964;33;20050;-75
2023/05/02 16:19:24;;;;;;;4.55;3.70;;;;;;;;;;4256856;33;20451;-73
2023/05/02 16:21:50;;;;;;;9.50;4.37;;;;;;;;;;4261301;33;20169;-73
2023/05/02 16:24:16;;;;;;;7.68;3.25;;;;;;;;;;4263960;33;20034;-77
2023/05/02 16:26:44;;;;;;;3.50;3.15;;;;;;;;;;4269908;33;20511;-73
2023/05/02 16:29:10;;;;;;;3.72;2.95;;;;;;;;;;4269356;33;20061;-75
2023/05/02 16:31:36;;;;;;;4.37;3.10;;;;;;;;;;4266314;33;20069;-72
2023/05/02 16:34:02;;;;;;;8.93;3.28;;;;;;;;;;4260585;33;20067;-73
2023/05/02 16:36:30;;;;;;;4.60;2.80;;;;;;;;;;4260084;33;20528;-73
2023/05/02 16:38:56;;;;;;;6.65;2.35;;;;;;;;;;4247581;33;20398;-74
2023/05/02 16:41:22;;;;;;;2.90;2.40;;;;;;;;;;4256011;33;20069;-72